TimeEDT,TemperatureF,Dew PointF,Humidity,Sea Level PressureIn,VisibilityMPH,Wind Direction,Wind SpeedMPH,Gust SpeedMPH,PrecipitationIn,Events,Conditions,WindDirDegrees,DateUTC
12:14 AM,49.1,47.5,94,29.81,5.0,West,17.3,25.3,N/A,Rain,Rain,280,2012-10-26 04:14:00
12:34 AM,48.6,46.8,93,29.83,7.0,West,19.6,26.5,N/A,Rain,Light Rain,280,2012-10-26 04:34:00
12:54 AM,48.0,45.5,91,29.87,4.0,WNW,19.6,23.0,N/A,,Light Drizzle,290,2012-10-26 04:54:00
1:14 AM,47.3,45.1,92,29.88,3.0,West,21.9,27.6,N/A,,Overcast,280,2012-10-26 05:14:00
1:34 AM,46.6,44.6,93,29.89,4.0,West,19.6,28.8,N/A,,Overcast,280,2012-10-26 05:34:00
2:14 AM,46.4,42.6,87,29.93,10.0,West,21.9,28.8,N/A,,Overcast,280,2012-10-26 06:14:00
2:33 AM,45.9,41.7,85,29.94,7.0,WNW,18.4,26.5,N/A,,Overcast,290,2012-10-26 06:33:00
2:54 AM,46.2,39.4,77,29.96,10.0,WNW,21.9,28.8,N/A,,Overcast,290,2012-10-26 06:54:00
3:13 AM,45.5,38.1,75,29.97,10.0,WNW,19.6,29.9,N/A,,Overcast,300,2012-10-26 07:13:00
3:34 AM,45.9,38.1,74,29.99,10.0,WNW,19.6,25.3,N/A,,Overcast,290,2012-10-26 07:34:00
3:54 AM,45.5,37.6,74,30.00,10.0,WNW,24.2,29.9,N/A,,Overcast,290,2012-10-26 07:54:00
4:14 AM,45.5,37.4,73,30.01,10.0,WNW,17.3,24.2,N/A,,Overcast,290,2012-10-26 08:14:00
4:34 AM,45.0,36.1,71,30.01,10.0,WNW,17.3,23.0,N/A,,Mostly Cloudy,290,2012-10-26 08:34:00
4:54 AM,45.3,37.0,73,30.02,10.0,West,18.4,25.3,N/A,,Overcast,280,2012-10-26 08:54:00
5:13 AM,45.0,37.4,75,30.03,10.0,WNW,18.4,25.3,N/A,,Overcast,290,2012-10-26 09:13:00
5:34 AM,44.8,36.7,73,30.04,10.0,West,23.0,26.5,N/A,,Overcast,280,2012-10-26 09:34:00
5:53 AM,44.6,35.6,71,30.05,10.0,WNW,16.1,26.5,N/A,,Overcast,290,2012-10-26 09:53:00
6:14 AM,44.2,35.1,70,30.07,10.0,West,16.1,23.0,N/A,,Overcast,280,2012-10-26 10:14:00
6:34 AM,44.2,35.6,72,30.08,10.0,WNW,13.8,20.7,N/A,,Overcast,290,2012-10-26 10:34:00
6:53 AM,44.1,34.7,70,30.08,10.0,WNW,18.4,26.5,N/A,,Overcast,290,2012-10-26 10:53:00
7:13 AM,42.4,37.0,81,30.10,7.0,WNW,17.3,25.3,N/A,Rain,Light Rain,290,2012-10-26 11:13:00
7:34 AM,42.4,35.6,77,30.10,10.0,West,16.1,19.6,N/A,Rain,Light Rain,280,2012-10-26 11:34:00
7:54 AM,43.2,33.1,68,30.12,10.0,West,16.1,24.2,N/A,,Overcast,280,2012-10-26 11:54:00
8:14 AM,42.8,32.2,66,30.13,10.0,West,15.0,-,N/A,,Overcast,280,2012-10-26 12:14:00
8:54 AM,42.8,31.1,63,30.15,10.0,West,12.7,18.4,N/A,,Overcast,280,2012-10-26 12:54:00
9:54 AM,43.3,30.4,60,30.19,10.0,West,10.4,-,N/A,,Overcast,270,2012-10-26 13:54:00
10:14 AM,43.7,30.9,61,30.19,10.0,West,18.4,-,N/A,,Overcast,280,2012-10-26 14:14:00
10:34 AM,43.7,30.0,59,30.21,10.0,West,16.1,19.6,N/A,,Overcast,280,2012-10-26 14:34:00
10:53 AM,43.9,30.4,59,30.22,10.0,West,10.4,19.6,N/A,,Overcast,280,2012-10-26 14:53:00
11:14 AM,43.9,30.4,59,30.23,10.0,West,17.3,20.7,N/A,,Overcast,270,2012-10-26 15:14:00
11:34 AM,44.6,30.7,58,30.24,10.0,West,16.1,20.7,N/A,,Overcast,280,2012-10-26 15:34:00
11:53 AM,44.6,30.4,57,30.24,10.0,West,16.1,19.6,N/A,,Overcast,270,2012-10-26 15:53:00
12:14 PM,44.6,31.5,60,30.25,10.0,West,13.8,-,N/A,,Overcast,280,2012-10-26 16:14:00
12:34 PM,44.8,31.8,60,30.25,10.0,West,16.1,-,N/A,,Overcast,280,2012-10-26 16:34:00
12:54 PM,44.8,31.8,60,30.25,10.0,West,15.0,-,N/A,,Overcast,260,2012-10-26 16:54:00
1:14 PM,46.0,32.2,58,30.26,10.0,West,13.8,19.6,N/A,,Mostly Cloudy,270,2012-10-26 17:14:00
1:33 PM,45.0,31.8,60,30.26,10.0,West,11.5,-,N/A,,Mostly Cloudy,280,2012-10-26 17:33:00
1:54 PM,45.3,32.9,62,30.25,10.0,West,12.7,-,N/A,,Mostly Cloudy,280,2012-10-26 17:54:00
2:14 PM,46.6,32.5,58,30.25,10.0,West,16.1,-,N/A,,Overcast,280,2012-10-26 18:14:00
2:34 PM,47.1,33.8,60,30.25,10.0,West,15.0,19.6,N/A,,Overcast,270,2012-10-26 18:34:00
2:54 PM,46.2,32.5,59,30.25,10.0,West,17.3,21.9,N/A,,Mostly Cloudy,270,2012-10-26 18:54:00
3:14 PM,45.1,32.0,60,30.25,10.0,West,11.5,19.6,N/A,,Scattered Clouds,260,2012-10-26 19:14:00
3:34 PM,44.6,32.2,62,30.25,10.0,WSW,9.2,20.7,N/A,,Mostly Cloudy,250,2012-10-26 19:34:00
3:54 PM,44.4,32.0,62,30.25,10.0,West,11.5,-,N/A,,Mostly Cloudy,260,2012-10-26 19:54:00
4:14 PM,45.1,32.7,62,30.26,10.0,West,11.5,-,N/A,,Mostly Cloudy,270,2012-10-26 20:14:00
4:34 PM,44.8,33.1,64,30.26,10.0,WSW,10.4,-,N/A,,Overcast,250,2012-10-26 20:34:00
4:54 PM,44.2,32.7,64,30.27,10.0,West,11.5,17.3,N/A,,Overcast,260,2012-10-26 20:54:00
5:14 PM,43.9,32.5,64,30.27,10.0,West,12.7,-,N/A,,Overcast,280,2012-10-26 21:14:00
5:34 PM,43.7,32.4,64,30.27,10.0,West,9.2,-,N/A,,Overcast,260,2012-10-26 21:34:00
5:54 PM,43.7,32.4,64,30.27,10.0,West,5.8,-,N/A,,Overcast,260,2012-10-26 21:54:00
6:13 PM,43.7,32.5,65,30.27,10.0,West,6.9,-,N/A,,Overcast,260,2012-10-26 22:13:00
6:34 PM,43.7,31.8,63,30.28,10.0,WSW,5.8,-,N/A,,Overcast,250,2012-10-26 22:34:00
6:54 PM,43.7,31.8,63,30.28,10.0,WSW,6.9,-,N/A,,Overcast,250,2012-10-26 22:54:00
7:14 PM,44.1,32.0,63,30.29,10.0,WNW,8.1,-,N/A,,Overcast,290,2012-10-26 23:14:00
7:34 PM,43.9,31.5,62,30.29,10.0,West,11.5,-,N/A,,Overcast,280,2012-10-26 23:34:00
7:53 PM,44.1,32.0,63,30.29,10.0,West,9.2,-,N/A,,Overcast,270,2012-10-26 23:53:00
8:14 PM,44.2,31.1,60,30.29,10.0,West,8.1,-,N/A,,Overcast,270,2012-10-27 00:14:00
8:34 PM,43.7,31.1,61,30.29,10.0,West,8.1,-,N/A,,Overcast,260,2012-10-27 00:34:00
8:54 PM,44.2,32.0,62,30.30,10.0,West,5.8,-,N/A,,Overcast,260,2012-10-27 00:54:00
9:14 PM,44.6,30.6,58,30.29,10.0,West,9.2,-,N/A,,Overcast,280,2012-10-27 01:14:00
9:34 PM,44.1,30.4,59,30.29,10.0,WNW,8.1,-,N/A,,Mostly Cloudy,300,2012-10-27 01:34:00
9:54 PM,44.1,29.8,57,30.29,10.0,West,6.9,-,N/A,,Mostly Cloudy,280,2012-10-27 01:54:00
10:14 PM,44.4,30.9,59,30.29,10.0,West,10.4,-,N/A,,Mostly Cloudy,280,2012-10-27 02:14:00
10:34 PM,44.6,30.9,59,30.28,10.0,WNW,12.7,-,N/A,,Overcast,290,2012-10-27 02:34:00
10:54 PM,44.6,30.4,57,30.29,10.0,WNW,10.4,-,N/A,,Overcast,290,2012-10-27 02:54:00
11:14 PM,44.8,30.2,57,30.29,10.0,NW,8.1,-,N/A,,Overcast,310,2012-10-27 03:14:00
11:34 PM,45.1,30.7,57,30.29,10.0,West,11.5,16.1,N/A,,Overcast,280,2012-10-27 03:34:00
11:54 PM,45.0,32.2,61,30.30,10.0,NNW,11.5,18.4,N/A,,Overcast,330,2012-10-27 03:54:00